Terminal Aerodrome Forecast
Issued by NWS

Home | Current Version | Previous Version | Text Only | Print | Product List | Glossary On
Versions: 1 2 3 4 5 6 7 8 9 10 11 12
000
FTAK31 PAJN 070500
TAFAJN
TAF
PAJN 070537Z 0706/0806 VRB04KT P6SM SCT200
     FM071500 27005KT P6SM FEW005 SCT200
     FM072100 24010KT P6SM BKN150=

USA.gov is the U.S. government's official web portal to all federal, state and local government web resources and services.